Weather at Varkaus Airport

Public forecast

Using degrees Celsius for public forecast. Weather courtesy of forecast.io.

Closest aviation weather report (METAR) to Varkaus Airport

Closest report is Savonlinna Airport, 33.2 nm (61.6 km) ESE.

2024/07/20 15:50 (retrieved 16 minutes ago)

EFSA 201550Z AUTO 04011KT 9999 FEW019 //////CB 20/16 Q1011

Closest aviation forecast (TAF) to Varkaus Airport

Closest forecast is Kuopio Airport, 50.2 nm (93.0 km) N.

2024/07/20 15:43 (retrieved 23 minutes ago)

TAF EFKU 201437Z 2015/2115 08008KT 9999 SCT010 BKN017 TEMPO 2015/2021 BKN012 FEW030CB